TimeCST,TemperatureF,Dew PointF,Humidity,Sea Level PressureIn,VisibilityMPH,Wind Direction,Wind SpeedMPH,Gust SpeedMPH,PrecipitationIn,Events,Conditions,WindDirDegrees,DateUTC
12:51 AM,39.0,28.0,65,30.06,10.0,WSW,17.3,-,N/A,,Clear,240,2013-12-28 06:51:00
1:51 AM,37.9,28.0,68,30.07,10.0,WSW,13.8,-,N/A,,Clear,250,2013-12-28 07:51:00
2:51 AM,36.0,27.0,70,30.08,10.0,West,6.9,-,N/A,,Clear,260,2013-12-28 08:51:00
3:51 AM,35.1,27.0,72,30.07,10.0,WSW,6.9,-,N/A,,Clear,250,2013-12-28 09:51:00
4:51 AM,35.1,27.0,72,30.07,10.0,SW,6.9,-,N/A,,Clear,220,2013-12-28 10:51:00
5:51 AM,34.0,27.0,75,30.09,10.0,SSW,10.4,-,N/A,,Clear,210,2013-12-28 11:51:00
6:51 AM,33.1,27.0,78,30.08,10.0,SSW,8.1,-,N/A,,Clear,210,2013-12-28 12:51:00
7:51 AM,34.0,28.0,79,30.07,10.0,SSW,8.1,-,N/A,,Clear,210,2013-12-28 13:51:00
8:51 AM,36.0,28.9,76,30.06,10.0,SW,10.4,-,N/A,,Clear,220,2013-12-28 14:51:00
9:51 AM,39.9,28.9,65,30.05,10.0,SSW,12.7,-,N/A,,Clear,210,2013-12-28 15:51:00
10:51 AM,42.1,28.9,60,30.03,10.0,SW,12.7,-,N/A,,Clear,230,2013-12-28 16:51:00
11:51 AM,44.1,30.0,58,30.00,10.0,SW,12.7,-,N/A,,Clear,220,2013-12-28 17:51:00
12:51 PM,46.9,30.0,52,29.96,10.0,SSW,13.8,-,N/A,,Partly Cloudy,210,2013-12-28 18:51:00
1:51 PM,48.0,30.0,50,29.96,10.0,SW,16.1,21.9,N/A,,Partly Cloudy,220,2013-12-28 19:51:00
2:51 PM,50.0,30.0,46,29.94,10.0,SSW,15.0,-,N/A,,Partly Cloudy,210,2013-12-28 20:51:00
3:51 PM,48.9,30.9,50,29.94,10.0,SSW,13.8,24.2,N/A,,Partly Cloudy,210,2013-12-28 21:51:00
4:51 PM,46.9,30.9,54,29.92,10.0,SSW,16.1,-,N/A,,Partly Cloudy,210,2013-12-28 22:51:00
5:51 PM,46.0,30.9,56,29.91,10.0,SSW,17.3,-,N/A,,Partly Cloudy,200,2013-12-28 23:51:00
6:51 PM,46.0,30.9,56,29.90,10.0,SSW,15.0,-,N/A,,Scattered Clouds,210,2013-12-29 00:51:00
7:51 PM,45.0,30.0,56,29.88,10.0,SSW,18.4,25.3,N/A,,Scattered Clouds,210,2013-12-29 01:51:00
8:51 PM,44.1,28.9,55,29.87,10.0,SW,17.3,25.3,N/A,,Mostly Cloudy,220,2013-12-29 02:51:00
9:51 PM,42.1,28.0,58,29.86,10.0,SW,11.5,23.0,N/A,,Scattered Clouds,220,2013-12-29 03:51:00
10:51 PM,39.9,28.0,63,29.84,10.0,SW,15.0,23.0,N/A,,Mostly Cloudy,230,2013-12-29 04:51:00
11:51 PM,39.0,28.0,65,29.82,10.0,SW,12.7,-,N/A,,Mostly Cloudy,220,2013-12-29 05:51:00